sensor_id;sensor_type;location;lat;lon;timestamp;P1;durP1;ratioP1;P2;durP2;ratioP2
48765;SDS011;65794;51.836;5.002;2022-12-18T00:02:15;220.43;;;33.95;;
48765;SDS011;65794;51.836;5.002;2022-12-18T00:04:41;129.98;;;27.55;;
48765;SDS011;65794;51.836;5.002;2022-12-18T00:07:06;123.65;;;27.08;;
48765;SDS011;65794;51.836;5.002;2022-12-18T00:09:32;82.03;;;21.90;;
48765;SDS011;65794;51.836;5.002;2022-12-18T00:11:58;99.55;;;23.63;;
48765;SDS011;65794;51.836;5.002;2022-12-18T00:14:24;101.00;;;26.52;;
48765;SDS011;65794;51.836;5.002;2022-12-18T00:16:49;111.35;;;25.50;;
48765;SDS011;65794;51.836;5.002;2022-12-18T00:19:15;120.95;;;25.92;;
48765;SDS011;65794;51.836;5.002;2022-12-18T00:21:43;82.38;;;25.83;;
48765;SDS011;65794;51.836;5.002;2022-12-18T00:24:09;119.55;;;26.30;;
48765;SDS011;65794;51.836;5.002;2022-12-18T00:26:36;90.93;;;26.00;;
48765;SDS011;65794;51.836;5.002;2022-12-18T00:29:04;110.40;;;27.67;;
48765;SDS011;65794;51.836;5.002;2022-12-18T00:31:31;109.72;;;25.48;;
48765;SDS011;65794;51.836;5.002;2022-12-18T00:33:57;132.05;;;29.27;;
48765;SDS011;65794;51.836;5.002;2022-12-18T00:36:24;101.80;;;23.30;;
48765;SDS011;65794;51.836;5.002;2022-12-18T00:38:51;101.95;;;25.52;;
48765;SDS011;65794;51.836;5.002;2022-12-18T00:41:17;142.57;;;26.27;;
48765;SDS011;65794;51.836;5.002;2022-12-18T00:44:04;116.50;;;24.20;;
48765;SDS011;65794;51.836;5.002;2022-12-18T00:46:30;119.38;;;24.10;;
48765;SDS011;65794;51.836;5.002;2022-12-18T00:48:56;101.68;;;22.20;;
48765;SDS011;65794;51.836;5.002;2022-12-18T00:53:47;69.67;;;19.73;;
48765;SDS011;65794;51.836;5.002;2022-12-18T00:56:13;68.70;;;20.42;;
48765;SDS011;65794;51.836;5.002;2022-12-18T00:58:39;165.77;;;25.23;;
48765;SDS011;65794;51.836;5.002;2022-12-18T01:01:05;102.93;;;23.25;;
48765;SDS011;65794;51.836;5.002;2022-12-18T01:03:33;100.47;;;24.48;;
48765;SDS011;65794;51.836;5.002;2022-12-18T01:05:59;74.22;;;21.80;;
48765;SDS011;65794;51.836;5.002;2022-12-18T01:10:50;63.28;;;19.75;;
48765;SDS011;65794;51.836;5.002;2022-12-18T01:15:48;72.80;;;20.50;;
48765;SDS011;65794;51.836;5.002;2022-12-18T01:18:14;69.05;;;19.50;;
48765;SDS011;65794;51.836;5.002;2022-12-18T01:20:40;105.72;;;22.88;;
48765;SDS011;65794;51.836;5.002;2022-12-18T01:23:06;69.50;;;21.90;;
48765;SDS011;65794;51.836;5.002;2022-12-18T01:25:33;76.82;;;23.15;;
48765;SDS011;65794;51.836;5.002;2022-12-18T01:27:58;66.65;;;20.23;;
48765;SDS011;65794;51.836;5.002;2022-12-18T01:30:24;79.65;;;22.42;;
48765;SDS011;65794;51.836;5.002;2022-12-18T01:32:52;80.90;;;22.83;;
48765;SDS011;65794;51.836;5.002;2022-12-18T01:35:18;80.43;;;23.83;;
48765;SDS011;65794;51.836;5.002;2022-12-18T01:37:45;76.50;;;22.35;;
48765;SDS011;65794;51.836;5.002;2022-12-18T01:40:11;62.30;;;21.83;;
48765;SDS011;65794;51.836;5.002;2022-12-18T01:42:37;65.07;;;21.65;;
48765;SDS011;65794;51.836;5.002;2022-12-18T01:50:40;85.22;;;19.92;;
48765;SDS011;65794;51.836;5.002;2022-12-18T01:53:07;66.65;;;21.63;;
48765;SDS011;65794;51.836;5.002;2022-12-18T01:55:37;69.45;;;20.63;;
48765;SDS011;65794;51.836;5.002;2022-12-18T01:58:04;66.35;;;20.13;;
48765;SDS011;65794;51.836;5.002;2022-12-18T02:00:30;73.68;;;21.65;;
48765;SDS011;65794;51.836;5.002;2022-12-18T02:02:56;78.15;;;22.65;;
48765;SDS011;65794;51.836;5.002;2022-12-18T02:10:39;68.38;;;22.35;;
48765;SDS011;65794;51.836;5.002;2022-12-18T02:15:39;86.28;;;21.92;;
48765;SDS011;65794;51.836;5.002;2022-12-18T02:18:18;83.63;;;23.38;;
48765;SDS011;65794;51.836;5.002;2022-12-18T02:26:12;77.38;;;21.83;;
48765;SDS011;65794;51.836;5.002;2022-12-18T02:28:41;61.63;;;20.00;;
48765;SDS011;65794;51.836;5.002;2022-12-18T02:31:11;71.90;;;21.10;;
48765;SDS011;65794;51.836;5.002;2022-12-18T02:33:37;72.05;;;20.70;;
48765;SDS011;65794;51.836;5.002;2022-12-18T02:36:04;64.32;;;21.00;;
48765;SDS011;65794;51.836;5.002;2022-12-18T02:38:32;69.82;;;22.63;;
48765;SDS011;65794;51.836;5.002;2022-12-18T02:41:05;66.55;;;22.00;;
48765;SDS011;65794;51.836;5.002;2022-12-18T02:43:31;71.25;;;20.40;;
48765;SDS011;65794;51.836;5.002;2022-12-18T02:45:59;65.68;;;20.45;;
48765;SDS011;65794;51.836;5.002;2022-12-18T02:48:31;65.03;;;20.70;;
48765;SDS011;65794;51.836;5.002;2022-12-18T02:53:33;70.88;;;22.27;;
48765;SDS011;65794;51.836;5.002;2022-12-18T02:56:07;74.05;;;20.75;;
48765;SDS011;65794;51.836;5.002;2022-12-18T02:58:44;67.68;;;21.08;;
48765;SDS011;65794;51.836;5.002;2022-12-18T03:04:25;66.68;;;20.17;;
48765;SDS011;65794;51.836;5.002;2022-12-18T03:06:55;75.00;;;23.13;;
48765;SDS011;65794;51.836;5.002;2022-12-18T03:09:28;73.32;;;22.55;;
48765;SDS011;65794;51.836;5.002;2022-12-18T03:11:56;71.50;;;21.20;;
48765;SDS011;65794;51.836;5.002;2022-12-18T03:15:04;72.30;;;21.13;;
48765;SDS011;65794;51.836;5.002;2022-12-18T03:17:33;63.30;;;20.45;;
48765;SDS011;65794;51.836;5.002;2022-12-18T03:20:00;75.65;;;21.42;;
48765;SDS011;65794;51.836;5.002;2022-12-18T03:22:30;69.28;;;21.40;;
48765;SDS011;65794;51.836;5.002;2022-12-18T03:24:57;74.13;;;21.00;;
48765;SDS011;65794;51.836;5.002;2022-12-18T03:27:23;70.40;;;22.02;;
48765;SDS011;65794;51.836;5.002;2022-12-18T03:29:53;65.03;;;21.02;;
48765;SDS011;65794;51.836;5.002;2022-12-18T03:32:29;69.82;;;20.42;;
48765;SDS011;65794;51.836;5.002;2022-12-18T03:34:58;65.95;;;20.40;;
48765;SDS011;65794;51.836;5.002;2022-12-18T03:37:30;77.55;;;20.80;;
48765;SDS011;65794;51.836;5.002;2022-12-18T03:39:56;62.33;;;20.40;;
48765;SDS011;65794;51.836;5.002;2022-12-18T03:42:29;63.53;;;20.48;;
48765;SDS011;65794;51.836;5.002;2022-12-18T03:45:08;62.45;;;20.38;;
48765;SDS011;65794;51.836;5.002;2022-12-18T03:47:55;56.55;;;19.45;;
48765;SDS011;65794;51.836;5.002;2022-12-18T03:50:45;61.33;;;18.63;;
48765;SDS011;65794;51.836;5.002;2022-12-18T03:55:38;62.08;;;18.75;;
48765;SDS011;65794;51.836;5.002;2022-12-18T03:58:06;68.40;;;19.38;;
48765;SDS011;65794;51.836;5.002;2022-12-18T04:00:45;58.50;;;19.20;;
48765;SDS011;65794;51.836;5.002;2022-12-18T04:03:11;48.92;;;17.25;;
48765;SDS011;65794;51.836;5.002;2022-12-18T04:05:43;51.58;;;16.95;;
48765;SDS011;65794;51.836;5.002;2022-12-18T04:08:10;55.88;;;17.67;;
48765;SDS011;65794;51.836;5.002;2022-12-18T04:10:40;55.15;;;16.90;;
48765;SDS011;65794;51.836;5.002;2022-12-18T04:13:06;60.22;;;17.10;;
48765;SDS011;65794;51.836;5.002;2022-12-18T04:15:34;50.40;;;16.88;;
48765;SDS011;65794;51.836;5.002;2022-12-18T04:18:02;49.63;;;16.85;;
48765;SDS011;65794;51.836;5.002;2022-12-18T04:20:35;47.35;;;16.55;;
48765;SDS011;65794;51.836;5.002;2022-12-18T04:23:02;46.97;;;15.80;;
48765;SDS011;65794;51.836;5.002;2022-12-18T04:25:28;48.85;;;15.43;;
48765;SDS011;65794;51.836;5.002;2022-12-18T04:28:06;48.03;;;15.60;;
48765;SDS011;65794;51.836;5.002;2022-12-18T04:30:33;52.65;;;16.42;;
48765;SDS011;65794;51.836;5.002;2022-12-18T04:32:58;50.50;;;17.65;;
48765;SDS011;65794;51.836;5.002;2022-12-18T04:35:24;51.63;;;15.63;;
48765;SDS011;65794;51.836;5.002;2022-12-18T04:37:50;47.90;;;16.02;;
48765;SDS011;65794;51.836;5.002;2022-12-18T04:40:16;48.15;;;15.48;;
48765;SDS011;65794;51.836;5.002;2022-12-18T04:42:45;50.80;;;16.00;;
48765;SDS011;65794;51.836;5.002;2022-12-18T04:45:11;45.10;;;15.00;;
48765;SDS011;65794;51.836;5.002;2022-12-18T04:47:37;39.60;;;14.80;;
48765;SDS011;65794;51.836;5.002;2022-12-18T04:50:02;46.78;;;17.23;;
48765;SDS011;65794;51.836;5.002;2022-12-18T04:52:32;45.10;;;15.00;;
48765;SDS011;65794;51.836;5.002;2022-12-18T04:54:57;47.88;;;15.32;;
48765;SDS011;65794;51.836;5.002;2022-12-18T04:57:23;47.50;;;16.23;;
48765;SDS011;65794;51.836;5.002;2022-12-18T04:59:49;44.75;;;15.50;;
48765;SDS011;65794;51.836;5.002;2022-12-18T05:04:40;51.80;;;14.70;;
48765;SDS011;65794;51.836;5.002;2022-12-18T05:09:31;42.45;;;13.05;;
48765;SDS011;65794;51.836;5.002;2022-12-18T05:14:23;40.70;;;12.73;;
48765;SDS011;65794;51.836;5.002;2022-12-18T05:19:14;39.20;;;13.25;;
48765;SDS011;65794;51.836;5.002;2022-12-18T05:21:40;45.38;;;15.85;;
48765;SDS011;65794;51.836;5.002;2022-12-18T05:24:05;39.58;;;12.68;;
48765;SDS011;65794;51.836;5.002;2022-12-18T05:26:31;41.08;;;14.88;;
48765;SDS011;65794;51.836;5.002;2022-12-18T05:28:57;41.58;;;15.45;;
48765;SDS011;65794;51.836;5.002;2022-12-18T05:31:22;41.45;;;13.07;;
48765;SDS011;65794;51.836;5.002;2022-12-18T05:33:48;39.58;;;13.65;;
48765;SDS011;65794;51.836;5.002;2022-12-18T05:36:14;39.90;;;13.60;;
48765;SDS011;65794;51.836;5.002;2022-12-18T05:38:40;45.72;;;14.88;;
48765;SDS011;65794;51.836;5.002;2022-12-18T05:41:06;48.33;;;13.75;;
48765;SDS011;65794;51.836;5.002;2022-12-18T05:43:33;42.30;;;14.25;;
48765;SDS011;65794;51.836;5.002;2022-12-18T05:46:02;38.00;;;14.20;;
48765;SDS011;65794;51.836;5.002;2022-12-18T05:48:28;44.95;;;15.50;;
48765;SDS011;65794;51.836;5.002;2022-12-18T05:50:54;45.13;;;14.60;;
48765;SDS011;65794;51.836;5.002;2022-12-18T05:53:20;38.78;;;14.57;;
48765;SDS011;65794;51.836;5.002;2022-12-18T05:55:46;41.50;;;14.30;;
48765;SDS011;65794;51.836;5.002;2022-12-18T05:58:12;40.55;;;14.10;;
48765;SDS011;65794;51.836;5.002;2022-12-18T06:00:40;33.65;;;12.82;;
48765;SDS011;65794;51.836;5.002;2022-12-18T06:03:09;34.75;;;14.20;;
48765;SDS011;65794;51.836;5.002;2022-12-18T06:05:39;44.97;;;13.90;;
48765;SDS011;65794;51.836;5.002;2022-12-18T06:08:05;45.38;;;15.00;;
48765;SDS011;65794;51.836;5.002;2022-12-18T06:10:31;43.72;;;14.10;;
48765;SDS011;65794;51.836;5.002;2022-12-18T06:12:57;39.15;;;13.15;;
48765;SDS011;65794;51.836;5.002;2022-12-18T06:15:22;40.72;;;14.25;;
48765;SDS011;65794;51.836;5.002;2022-12-18T06:17:48;40.22;;;13.77;;
48765;SDS011;65794;51.836;5.002;2022-12-18T06:20:14;36.13;;;12.90;;
48765;SDS011;65794;51.836;5.002;2022-12-18T06:22:39;34.47;;;12.82;;
48765;SDS011;65794;51.836;5.002;2022-12-18T06:25:05;34.90;;;13.15;;
48765;SDS011;65794;51.836;5.002;2022-12-18T06:27:31;31.48;;;11.95;;
48765;SDS011;65794;51.836;5.002;2022-12-18T06:29:59;29.42;;;11.30;;
48765;SDS011;65794;51.836;5.002;2022-12-18T06:32:25;34.63;;;12.02;;
48765;SDS011;65794;51.836;5.002;2022-12-18T06:34:51;33.05;;;10.95;;
48765;SDS011;65794;51.836;5.002;2022-12-18T06:37:16;37.85;;;11.98;;
48765;SDS011;65794;51.836;5.002;2022-12-18T06:39:42;34.10;;;11.93;;
48765;SDS011;65794;51.836;5.002;2022-12-18T06:42:08;35.83;;;12.00;;
48765;SDS011;65794;51.836;5.002;2022-12-18T06:46:59;24.20;;;9.68;;
48765;SDS011;65794;51.836;5.002;2022-12-18T06:49:25;31.23;;;11.05;;
48765;SDS011;65794;51.836;5.002;2022-12-18T06:51:51;42.58;;;11.52;;
48765;SDS011;65794;51.836;5.002;2022-12-18T06:54:17;45.10;;;13.15;;
48765;SDS011;65794;51.836;5.002;2022-12-18T06:56:44;34.80;;;12.02;;
48765;SDS011;65794;51.836;5.002;2022-12-18T06:59:10;36.47;;;12.65;;
48765;SDS011;65794;51.836;5.002;2022-12-18T07:01:36;54.58;;;12.68;;
48765;SDS011;65794;51.836;5.002;2022-12-18T07:06:27;31.15;;;11.38;;
48765;SDS011;65794;51.836;5.002;2022-12-18T07:08:53;37.47;;;11.85;;
48765;SDS011;65794;51.836;5.002;2022-12-18T07:11:19;36.40;;;13.45;;
48765;SDS011;65794;51.836;5.002;2022-12-18T07:13:45;31.92;;;11.65;;
48765;SDS011;65794;51.836;5.002;2022-12-18T07:16:15;42.45;;;13.63;;
48765;SDS011;65794;51.836;5.002;2022-12-18T07:18:41;36.33;;;13.85;;
48765;SDS011;65794;51.836;5.002;2022-12-18T07:21:09;34.58;;;13.02;;
48765;SDS011;65794;51.836;5.002;2022-12-18T07:23:35;38.42;;;12.70;;
48765;SDS011;65794;51.836;5.002;2022-12-18T07:26:02;33.20;;;11.82;;
48765;SDS011;65794;51.836;5.002;2022-12-18T07:28:28;33.88;;;12.85;;
48765;SDS011;65794;51.836;5.002;2022-12-18T07:30:54;37.03;;;12.40;;
48765;SDS011;65794;51.836;5.002;2022-12-18T07:35:45;30.85;;;11.10;;
48765;SDS011;65794;51.836;5.002;2022-12-18T07:38:11;35.70;;;11.80;;
48765;SDS011;65794;51.836;5.002;2022-12-18T07:40:37;26.50;;;10.98;;
48765;SDS011;65794;51.836;5.002;2022-12-18T07:43:02;35.97;;;12.65;;
48765;SDS011;65794;51.836;5.002;2022-12-18T07:45:28;30.95;;;12.43;;
48765;SDS011;65794;51.836;5.002;2022-12-18T07:47:54;30.67;;;11.93;;
48765;SDS011;65794;51.836;5.002;2022-12-18T07:50:20;31.52;;;11.32;;
48765;SDS011;65794;51.836;5.002;2022-12-18T07:52:45;23.38;;;10.23;;
48765;SDS011;65794;51.836;5.002;2022-12-18T07:55:11;38.47;;;13.75;;
48765;SDS011;65794;51.836;5.002;2022-12-18T07:57:37;35.75;;;12.82;;
48765;SDS011;65794;51.836;5.002;2022-12-18T08:00:03;31.13;;;12.40;;
48765;SDS011;65794;51.836;5.002;2022-12-18T08:02:37;33.08;;;11.90;;
48765;SDS011;65794;51.836;5.002;2022-12-18T08:05:03;27.65;;;11.38;;
48765;SDS011;65794;51.836;5.002;2022-12-18T08:07:32;32.30;;;11.65;;
48765;SDS011;65794;51.836;5.002;2022-12-18T08:09:58;34.40;;;11.85;;
48765;SDS011;65794;51.836;5.002;2022-12-18T08:12:24;32.85;;;11.32;;
48765;SDS011;65794;51.836;5.002;2022-12-18T08:14:50;29.52;;;11.35;;
48765;SDS011;65794;51.836;5.002;2022-12-18T08:17:15;38.05;;;12.07;;
48765;SDS011;65794;51.836;5.002;2022-12-18T08:19:41;31.20;;;11.20;;
48765;SDS011;65794;51.836;5.002;2022-12-18T08:22:07;33.78;;;12.85;;
48765;SDS011;65794;51.836;5.002;2022-12-18T08:24:32;34.50;;;12.02;;
48765;SDS011;65794;51.836;5.002;2022-12-18T08:26:58;33.85;;;12.63;;
48765;SDS011;65794;51.836;5.002;2022-12-18T08:29:24;34.35;;;11.88;;
48765;SDS011;65794;51.836;5.002;2022-12-18T08:31:49;35.53;;;11.77;;
48765;SDS011;65794;51.836;5.002;2022-12-18T08:34:15;35.90;;;12.43;;
48765;SDS011;65794;51.836;5.002;2022-12-18T08:36:41;31.65;;;12.07;;
48765;SDS011;65794;51.836;5.002;2022-12-18T08:39:07;36.17;;;12.90;;
48765;SDS011;65794;51.836;5.002;2022-12-18T08:41:32;34.72;;;12.25;;
48765;SDS011;65794;51.836;5.002;2022-12-18T08:43:58;35.58;;;12.40;;
48765;SDS011;65794;51.836;5.002;2022-12-18T08:46:43;33.08;;;11.82;;
48765;SDS011;65794;51.836;5.002;2022-12-18T08:49:09;31.73;;;11.43;;
48765;SDS011;65794;51.836;5.002;2022-12-18T08:51:35;27.77;;;10.82;;
48765;SDS011;65794;51.836;5.002;2022-12-18T08:54:01;33.75;;;11.70;;
48765;SDS011;65794;51.836;5.002;2022-12-18T08:56:27;39.10;;;13.38;;
48765;SDS011;65794;51.836;5.002;2022-12-18T08:58:54;35.83;;;11.98;;
48765;SDS011;65794;51.836;5.002;2022-12-18T09:01:20;29.60;;;11.65;;
48765;SDS011;65794;51.836;5.002;2022-12-18T09:03:46;31.75;;;11.95;;
48765;SDS011;65794;51.836;5.002;2022-12-18T09:08:37;28.88;;;11.65;;
48765;SDS011;65794;51.836;5.002;2022-12-18T09:13:28;25.63;;;9.90;;
48765;SDS011;65794;51.836;5.002;2022-12-18T09:15:54;25.08;;;10.90;;
48765;SDS011;65794;51.836;5.002;2022-12-18T09:18:21;26.10;;;11.30;;
48765;SDS011;65794;51.836;5.002;2022-12-18T09:20:47;37.38;;;12.75;;
48765;SDS011;65794;51.836;5.002;2022-12-18T09:23:13;30.95;;;11.95;;
48765;SDS011;65794;51.836;5.002;2022-12-18T09:25:39;35.47;;;12.30;;
48765;SDS011;65794;51.836;5.002;2022-12-18T09:28:09;31.83;;;11.95;;
48765;SDS011;65794;51.836;5.002;2022-12-18T09:30:39;33.47;;;11.80;;
48765;SDS011;65794;51.836;5.002;2022-12-18T09:33:05;32.00;;;11.30;;
48765;SDS011;65794;51.836;5.002;2022-12-18T09:35:30;36.00;;;11.48;;
48765;SDS011;65794;51.836;5.002;2022-12-18T09:37:56;30.75;;;12.10;;
48765;SDS011;65794;51.836;5.002;2022-12-18T09:40:23;37.75;;;12.75;;
48765;SDS011;65794;51.836;5.002;2022-12-18T09:42:59;30.13;;;11.85;;
48765;SDS011;65794;51.836;5.002;2022-12-18T09:45:26;33.40;;;11.85;;
48765;SDS011;65794;51.836;5.002;2022-12-18T09:47:52;33.33;;;11.10;;
48765;SDS011;65794;51.836;5.002;2022-12-18T09:50:22;36.70;;;12.75;;
48765;SDS011;65794;51.836;5.002;2022-12-18T09:52:50;29.52;;;11.65;;
48765;SDS011;65794;51.836;5.002;2022-12-18T09:55:28;28.58;;;11.38;;
48765;SDS011;65794;51.836;5.002;2022-12-18T09:57:56;31.48;;;12.27;;
48765;SDS011;65794;51.836;5.002;2022-12-18T10:00:24;36.85;;;13.85;;
48765;SDS011;65794;51.836;5.002;2022-12-18T10:02:56;40.03;;;14.85;;
48765;SDS011;65794;51.836;5.002;2022-12-18T10:07:55;33.95;;;13.05;;
48765;SDS011;65794;51.836;5.002;2022-12-18T10:13:34;32.75;;;12.70;;
48765;SDS011;65794;51.836;5.002;2022-12-18T10:19:18;30.70;;;12.10;;
48765;SDS011;65794;51.836;5.002;2022-12-18T10:21:44;36.38;;;12.75;;
48765;SDS011;65794;51.836;5.002;2022-12-18T10:24:18;32.17;;;11.95;;
48765;SDS011;65794;51.836;5.002;2022-12-18T10:26:45;28.23;;;10.77;;
48765;SDS011;65794;51.836;5.002;2022-12-18T10:29:12;26.92;;;10.52;;
48765;SDS011;65794;51.836;5.002;2022-12-18T10:31:38;30.73;;;11.35;;
48765;SDS011;65794;51.836;5.002;2022-12-18T10:34:07;29.67;;;10.95;;
48765;SDS011;65794;51.836;5.002;2022-12-18T10:36:34;34.75;;;11.98;;
48765;SDS011;65794;51.836;5.002;2022-12-18T10:39:19;30.75;;;12.63;;
48765;SDS011;65794;51.836;5.002;2022-12-18T10:41:47;30.17;;;11.23;;
48765;SDS011;65794;51.836;5.002;2022-12-18T10:46:43;36.90;;;12.00;;
48765;SDS011;65794;51.836;5.002;2022-12-18T10:49:23;27.05;;;12.75;;
48765;SDS011;65794;51.836;5.002;2022-12-18T10:51:50;32.65;;;11.35;;
48765;SDS011;65794;51.836;5.002;2022-12-18T10:54:22;20.95;;;9.05;;
48765;SDS011;65794;51.836;5.002;2022-12-18T10:56:49;30.00;;;10.82;;
48765;SDS011;65794;51.836;5.002;2022-12-18T10:59:15;28.98;;;11.35;;
48765;SDS011;65794;51.836;5.002;2022-12-18T11:01:45;33.60;;;13.02;;
48765;SDS011;65794;51.836;5.002;2022-12-18T11:04:13;27.35;;;11.13;;
48765;SDS011;65794;51.836;5.002;2022-12-18T11:09:19;30.83;;;12.35;;
48765;SDS011;65794;51.836;5.002;2022-12-18T11:11:49;36.65;;;13.38;;
48765;SDS011;65794;51.836;5.002;2022-12-18T11:14:24;36.08;;;13.73;;
48765;SDS011;65794;51.836;5.002;2022-12-18T11:16:51;35.13;;;12.93;;
48765;SDS011;65794;51.836;5.002;2022-12-18T11:21:46;34.50;;;13.25;;
48765;SDS011;65794;51.836;5.002;2022-12-18T11:26:47;36.28;;;13.65;;
48765;SDS011;65794;51.836;5.002;2022-12-18T11:29:17;32.42;;;12.00;;
48765;SDS011;65794;51.836;5.002;2022-12-18T11:31:43;34.75;;;13.52;;
48765;SDS011;65794;51.836;5.002;2022-12-18T11:34:26;30.65;;;12.80;;
48765;SDS011;65794;51.836;5.002;2022-12-18T11:36:52;31.92;;;12.80;;
48765;SDS011;65794;51.836;5.002;2022-12-18T11:47:13;37.60;;;14.52;;
48765;SDS011;65794;51.836;5.002;2022-12-18T11:49:41;38.00;;;13.70;;
48765;SDS011;65794;51.836;5.002;2022-12-18T11:54:35;40.92;;;15.07;;
48765;SDS011;65794;51.836;5.002;2022-12-18T12:02:03;39.92;;;14.82;;
48765;SDS011;65794;51.836;5.002;2022-12-18T12:09:52;35.33;;;13.57;;
48765;SDS011;65794;51.836;5.002;2022-12-18T12:12:28;30.35;;;13.07;;
48765;SDS011;65794;51.836;5.002;2022-12-18T12:15:10;35.03;;;12.50;;
48765;SDS011;65794;51.836;5.002;2022-12-18T12:17:50;32.63;;;12.35;;
48765;SDS011;65794;51.836;5.002;2022-12-18T12:25:18;40.28;;;14.35;;
48765;SDS011;65794;51.836;5.002;2022-12-18T12:30:35;31.85;;;12.30;;
48765;SDS011;65794;51.836;5.002;2022-12-18T12:33:08;35.20;;;13.13;;
48765;SDS011;65794;51.836;5.002;2022-12-18T12:35:43;31.73;;;12.60;;
48765;SDS011;65794;51.836;5.002;2022-12-18T12:40:37;31.33;;;13.38;;
48765;SDS011;65794;51.836;5.002;2022-12-18T12:43:10;33.92;;;13.73;;
48765;SDS011;65794;51.836;5.002;2022-12-18T12:45:42;34.17;;;13.80;;
48765;SDS011;65794;51.836;5.002;2022-12-18T12:48:15;31.45;;;13.27;;
48765;SDS011;65794;51.836;5.002;2022-12-18T12:50:41;35.35;;;12.50;;
48765;SDS011;65794;51.836;5.002;2022-12-18T12:53:09;35.55;;;13.95;;
48765;SDS011;65794;51.836;5.002;2022-12-18T12:55:39;31.88;;;12.98;;
48765;SDS011;65794;51.836;5.002;2022-12-18T12:58:17;39.53;;;15.20;;
48765;SDS011;65794;51.836;5.002;2022-12-18T13:00:58;40.17;;;14.90;;
48765;SDS011;65794;51.836;5.002;2022-12-18T13:03:34;35.22;;;14.50;;
48765;SDS011;65794;51.836;5.002;2022-12-18T13:06:16;37.28;;;15.30;;
48765;SDS011;65794;51.836;5.002;2022-12-18T13:08:58;39.00;;;15.02;;
48765;SDS011;65794;51.836;5.002;2022-12-18T13:11:28;38.92;;;14.77;;
48765;SDS011;65794;51.836;5.002;2022-12-18T13:14:20;37.88;;;14.30;;
48765;SDS011;65794;51.836;5.002;2022-12-18T13:16:46;41.72;;;15.10;;
48765;SDS011;65794;51.836;5.002;2022-12-18T13:19:20;39.33;;;15.85;;
48765;SDS011;65794;51.836;5.002;2022-12-18T13:21:51;40.72;;;15.48;;
48765;SDS011;65794;51.836;5.002;2022-12-18T13:24:27;34.15;;;15.60;;
48765;SDS011;65794;51.836;5.002;2022-12-18T13:26:55;41.00;;;16.95;;
48765;SDS011;65794;51.836;5.002;2022-12-18T13:29:40;38.15;;;15.82;;
48765;SDS011;65794;51.836;5.002;2022-12-18T13:32:17;39.72;;;15.35;;
48765;SDS011;65794;51.836;5.002;2022-12-18T13:34:44;40.13;;;15.77;;
48765;SDS011;65794;51.836;5.002;2022-12-18T13:39:54;40.92;;;15.15;;
48765;SDS011;65794;51.836;5.002;2022-12-18T13:45:58;40.55;;;15.55;;
48765;SDS011;65794;51.836;5.002;2022-12-18T13:47:53;33.20;;;14.83;;
48765;SDS011;65794;51.836;5.002;2022-12-18T13:52:45;35.33;;;14.65;;
48765;SDS011;65794;51.836;5.002;2022-12-18T13:55:15;42.38;;;16.50;;
48765;SDS011;65794;51.836;5.002;2022-12-18T13:57:41;42.70;;;16.38;;
48765;SDS011;65794;51.836;5.002;2022-12-18T14:02:44;42.95;;;16.10;;
48765;SDS011;65794;51.836;5.002;2022-12-18T14:05:21;36.33;;;15.32;;
48765;SDS011;65794;51.836;5.002;2022-12-18T14:07:47;39.20;;;16.40;;
48765;SDS011;65794;51.836;5.002;2022-12-18T14:10:13;43.38;;;16.13;;
48765;SDS011;65794;51.836;5.002;2022-12-18T14:12:40;43.75;;;16.05;;
48765;SDS011;65794;51.836;5.002;2022-12-18T14:15:28;43.22;;;15.93;;
48765;SDS011;65794;51.836;5.002;2022-12-18T14:18:01;44.33;;;15.85;;
48765;SDS011;65794;51.836;5.002;2022-12-18T14:20:27;39.53;;;14.93;;
48765;SDS011;65794;51.836;5.002;2022-12-18T14:22:53;42.13;;;16.52;;
48765;SDS011;65794;51.836;5.002;2022-12-18T14:25:20;34.38;;;14.48;;
48765;SDS011;65794;51.836;5.002;2022-12-18T14:27:47;39.95;;;14.75;;
48765;SDS011;65794;51.836;5.002;2022-12-18T14:30:56;35.90;;;14.25;;
48765;SDS011;65794;51.836;5.002;2022-12-18T14:33:04;35.95;;;14.05;;
48765;SDS011;65794;51.836;5.002;2022-12-18T14:35:30;36.08;;;13.23;;
48765;SDS011;65794;51.836;5.002;2022-12-18T14:40:40;40.42;;;15.77;;
48765;SDS011;65794;51.836;5.002;2022-12-18T14:43:08;36.78;;;14.98;;
48765;SDS011;65794;51.836;5.002;2022-12-18T14:45:35;34.38;;;14.05;;
48765;SDS011;65794;51.836;5.002;2022-12-18T14:50:38;39.08;;;13.73;;
48765;SDS011;65794;51.836;5.002;2022-12-18T14:53:17;37.25;;;15.18;;
48765;SDS011;65794;51.836;5.002;2022-12-18T14:55:45;36.10;;;15.02;;
48765;SDS011;65794;51.836;5.002;2022-12-18T14:58:13;37.63;;;14.20;;
48765;SDS011;65794;51.836;5.002;2022-12-18T15:00:41;38.45;;;13.57;;
48765;SDS011;65794;51.836;5.002;2022-12-18T15:03:07;38.53;;;14.82;;
48765;SDS011;65794;51.836;5.002;2022-12-18T15:05:33;37.28;;;14.45;;
48765;SDS011;65794;51.836;5.002;2022-12-18T15:08:00;40.70;;;15.35;;
48765;SDS011;65794;51.836;5.002;2022-12-18T15:10:27;37.67;;;15.30;;
48765;SDS011;65794;51.836;5.002;2022-12-18T15:20:30;41.78;;;12.88;;
48765;SDS011;65794;51.836;5.002;2022-12-18T15:22:56;40.13;;;14.63;;
48765;SDS011;65794;51.836;5.002;2022-12-18T15:25:40;38.67;;;15.85;;
48765;SDS011;65794;51.836;5.002;2022-12-18T15:28:20;37.53;;;15.00;;
48765;SDS011;65794;51.836;5.002;2022-12-18T15:33:36;31.10;;;13.45;;
48765;SDS011;65794;51.836;5.002;2022-12-18T15:36:03;44.10;;;14.93;;
48765;SDS011;65794;51.836;5.002;2022-12-18T15:38:29;37.20;;;13.73;;
48765;SDS011;65794;51.836;5.002;2022-12-18T15:40:55;30.88;;;13.23;;
48765;SDS011;65794;51.836;5.002;2022-12-18T15:43:22;37.65;;;14.35;;
48765;SDS011;65794;51.836;5.002;2022-12-18T15:46:04;38.25;;;13.85;;
48765;SDS011;65794;51.836;5.002;2022-12-18T15:48:32;39.97;;;15.20;;
48765;SDS011;65794;51.836;5.002;2022-12-18T15:50:58;36.72;;;14.80;;
48765;SDS011;65794;51.836;5.002;2022-12-18T15:53:25;36.53;;;15.23;;
48765;SDS011;65794;51.836;5.002;2022-12-18T15:55:51;36.13;;;14.05;;
48765;SDS011;65794;51.836;5.002;2022-12-18T15:58:36;33.40;;;14.13;;
48765;SDS011;65794;51.836;5.002;2022-12-18T16:01:01;39.63;;;14.30;;
48765;SDS011;65794;51.836;5.002;2022-12-18T16:03:27;41.35;;;14.52;;
48765;SDS011;65794;51.836;5.002;2022-12-18T16:05:53;34.45;;;13.32;;
48765;SDS011;65794;51.836;5.002;2022-12-18T16:08:19;37.67;;;15.90;;
48765;SDS011;65794;51.836;5.002;2022-12-18T16:13:11;30.70;;;12.55;;
48765;SDS011;65794;51.836;5.002;2022-12-18T16:15:37;41.75;;;13.70;;
48765;SDS011;65794;51.836;5.002;2022-12-18T16:18:02;39.15;;;15.15;;
48765;SDS011;65794;51.836;5.002;2022-12-18T16:20:28;40.60;;;15.38;;
48765;SDS011;65794;51.836;5.002;2022-12-18T16:25:24;31.20;;;12.43;;
48765;SDS011;65794;51.836;5.002;2022-12-18T16:27:50;32.63;;;13.75;;
48765;SDS011;65794;51.836;5.002;2022-12-18T16:30:21;35.10;;;13.80;;
48765;SDS011;65794;51.836;5.002;2022-12-18T16:32:47;36.47;;;14.57;;
48765;SDS011;65794;51.836;5.002;2022-12-18T16:35:13;45.00;;;15.93;;
48765;SDS011;65794;51.836;5.002;2022-12-18T16:37:40;41.30;;;15.07;;
48765;SDS011;65794;51.836;5.002;2022-12-18T16:40:07;35.70;;;13.93;;
48765;SDS011;65794;51.836;5.002;2022-12-18T16:42:34;40.55;;;15.10;;
48765;SDS011;65794;51.836;5.002;2022-12-18T16:45:00;40.20;;;15.15;;
48765;SDS011;65794;51.836;5.002;2022-12-18T16:47:26;42.83;;;16.27;;